sensor_id;sensor_type;location;lat;lon;timestamp;P1;durP1;ratioP1;P2;durP2;ratioP2
32216;SDS011;67098;51.140;4.088;2023-04-19T00:00:18;31.70;;;19.63;;
32216;SDS011;67098;51.140;4.088;2023-04-19T00:02:45;31.73;;;19.85;;
32216;SDS011;67098;51.140;4.088;2023-04-19T00:05:13;29.55;;;19.60;;
32216;SDS011;67098;51.140;4.088;2023-04-19T00:07:39;28.60;;;18.30;;
32216;SDS011;67098;51.140;4.088;2023-04-19T00:10:05;28.58;;;20.23;;
32216;SDS011;67098;51.140;4.088;2023-04-19T00:12:31;29.00;;;19.38;;
32216;SDS011;67098;51.140;4.088;2023-04-19T00:14:57;31.55;;;20.85;;
32216;SDS011;67098;51.140;4.088;2023-04-19T00:17:23;28.40;;;19.08;;
32216;SDS011;67098;51.140;4.088;2023-04-19T00:19:48;28.33;;;19.70;;
32216;SDS011;67098;51.140;4.088;2023-04-19T00:22:14;30.00;;;20.45;;
32216;SDS011;67098;51.140;4.088;2023-04-19T00:24:41;30.33;;;20.42;;
32216;SDS011;67098;51.140;4.088;2023-04-19T00:27:06;32.83;;;20.23;;
32216;SDS011;67098;51.140;4.088;2023-04-19T00:29:32;29.35;;;19.65;;
32216;SDS011;67098;51.140;4.088;2023-04-19T00:31:58;28.38;;;19.52;;
32216;SDS011;67098;51.140;4.088;2023-04-19T00:34:23;32.65;;;19.67;;
32216;SDS011;67098;51.140;4.088;2023-04-19T00:36:49;31.13;;;19.90;;
32216;SDS011;67098;51.140;4.088;2023-04-19T00:39:15;32.38;;;20.55;;
32216;SDS011;67098;51.140;4.088;2023-04-19T00:41:40;31.05;;;20.42;;
32216;SDS011;67098;51.140;4.088;2023-04-19T00:44:06;29.90;;;20.08;;
32216;SDS011;67098;51.140;4.088;2023-04-19T00:46:31;33.95;;;20.17;;
32216;SDS011;67098;51.140;4.088;2023-04-19T00:48:58;32.05;;;20.35;;
32216;SDS011;67098;51.140;4.088;2023-04-19T00:51:23;30.10;;;21.00;;
32216;SDS011;67098;51.140;4.088;2023-04-19T00:53:51;32.03;;;20.48;;
32216;SDS011;67098;51.140;4.088;2023-04-19T00:56:17;31.63;;;21.05;;
32216;SDS011;67098;51.140;4.088;2023-04-19T00:58:45;31.27;;;19.48;;
32216;SDS011;67098;51.140;4.088;2023-04-19T01:01:11;35.00;;;20.05;;
32216;SDS011;67098;51.140;4.088;2023-04-19T01:03:37;30.83;;;20.33;;
32216;SDS011;67098;51.140;4.088;2023-04-19T01:06:03;32.90;;;20.05;;
32216;SDS011;67098;51.140;4.088;2023-04-19T01:08:28;34.55;;;20.98;;
32216;SDS011;67098;51.140;4.088;2023-04-19T01:10:54;31.88;;;19.63;;
32216;SDS011;67098;51.140;4.088;2023-04-19T01:13:20;30.98;;;20.85;;
32216;SDS011;67098;51.140;4.088;2023-04-19T01:15:46;32.30;;;20.08;;
32216;SDS011;67098;51.140;4.088;2023-04-19T01:18:11;31.13;;;20.80;;
32216;SDS011;67098;51.140;4.088;2023-04-19T01:20:38;30.08;;;20.92;;
32216;SDS011;67098;51.140;4.088;2023-04-19T01:23:03;31.70;;;20.45;;
32216;SDS011;67098;51.140;4.088;2023-04-19T01:25:29;29.88;;;21.27;;
32216;SDS011;67098;51.140;4.088;2023-04-19T01:27:55;32.80;;;21.23;;
32216;SDS011;67098;51.140;4.088;2023-04-19T01:30:20;30.90;;;20.17;;
32216;SDS011;67098;51.140;4.088;2023-04-19T01:32:46;32.50;;;20.95;;
32216;SDS011;67098;51.140;4.088;2023-04-19T01:35:12;31.80;;;21.17;;
32216;SDS011;67098;51.140;4.088;2023-04-19T01:37:37;33.88;;;20.77;;
32216;SDS011;67098;51.140;4.088;2023-04-19T01:40:03;32.42;;;21.05;;
32216;SDS011;67098;51.140;4.088;2023-04-19T01:42:30;31.63;;;21.67;;
32216;SDS011;67098;51.140;4.088;2023-04-19T01:44:55;32.65;;;21.85;;
32216;SDS011;67098;51.140;4.088;2023-04-19T01:47:21;31.25;;;20.90;;
32216;SDS011;67098;51.140;4.088;2023-04-19T01:49:49;34.20;;;21.48;;
32216;SDS011;67098;51.140;4.088;2023-04-19T01:52:14;33.00;;;21.92;;
32216;SDS011;67098;51.140;4.088;2023-04-19T01:54:41;33.20;;;20.83;;
32216;SDS011;67098;51.140;4.088;2023-04-19T01:57:07;34.30;;;22.42;;
32216;SDS011;67098;51.140;4.088;2023-04-19T01:59:32;32.10;;;21.98;;
32216;SDS011;67098;51.140;4.088;2023-04-19T02:01:58;34.42;;;21.85;;
32216;SDS011;67098;51.140;4.088;2023-04-19T02:04:23;33.92;;;21.80;;
32216;SDS011;67098;51.140;4.088;2023-04-19T02:06:49;33.50;;;22.17;;
32216;SDS011;67098;51.140;4.088;2023-04-19T02:09:15;31.15;;;21.15;;
32216;SDS011;67098;51.140;4.088;2023-04-19T02:11:40;35.63;;;22.60;;
32216;SDS011;67098;51.140;4.088;2023-04-19T02:14:06;34.75;;;22.10;;
32216;SDS011;67098;51.140;4.088;2023-04-19T02:16:32;36.33;;;23.02;;
32216;SDS011;67098;51.140;4.088;2023-04-19T02:18:57;32.00;;;21.35;;
32216;SDS011;67098;51.140;4.088;2023-04-19T02:21:23;36.58;;;22.35;;
32216;SDS011;67098;51.140;4.088;2023-04-19T02:23:48;34.53;;;22.95;;
32216;SDS011;67098;51.140;4.088;2023-04-19T02:26:14;35.30;;;22.02;;
32216;SDS011;67098;51.140;4.088;2023-04-19T02:28:40;31.92;;;20.73;;
32216;SDS011;67098;51.140;4.088;2023-04-19T02:31:05;32.58;;;21.40;;
32216;SDS011;67098;51.140;4.088;2023-04-19T02:33:31;32.97;;;21.60;;
32216;SDS011;67098;51.140;4.088;2023-04-19T02:35:56;38.60;;;22.67;;
32216;SDS011;67098;51.140;4.088;2023-04-19T02:38:22;36.42;;;23.33;;
32216;SDS011;67098;51.140;4.088;2023-04-19T02:40:48;36.00;;;22.65;;
32216;SDS011;67098;51.140;4.088;2023-04-19T02:43:13;35.85;;;22.83;;
32216;SDS011;67098;51.140;4.088;2023-04-19T02:45:39;35.70;;;21.75;;
32216;SDS011;67098;51.140;4.088;2023-04-19T02:48:05;32.00;;;21.27;;
32216;SDS011;67098;51.140;4.088;2023-04-19T02:50:31;34.85;;;21.65;;
32216;SDS011;67098;51.140;4.088;2023-04-19T02:52:57;35.08;;;22.60;;
32216;SDS011;67098;51.140;4.088;2023-04-19T02:55:23;36.47;;;21.27;;
32216;SDS011;67098;51.140;4.088;2023-04-19T02:57:48;33.25;;;21.45;;
32216;SDS011;67098;51.140;4.088;2023-04-19T03:00:14;31.90;;;21.42;;
32216;SDS011;67098;51.140;4.088;2023-04-19T03:02:40;33.80;;;22.75;;
32216;SDS011;67098;51.140;4.088;2023-04-19T03:05:08;32.47;;;21.55;;
32216;SDS011;67098;51.140;4.088;2023-04-19T03:07:34;31.17;;;21.27;;
32216;SDS011;67098;51.140;4.088;2023-04-19T03:10:00;35.88;;;21.83;;
32216;SDS011;67098;51.140;4.088;2023-04-19T03:12:26;33.85;;;22.30;;
32216;SDS011;67098;51.140;4.088;2023-04-19T03:14:51;34.55;;;21.85;;
32216;SDS011;67098;51.140;4.088;2023-04-19T03:17:17;30.60;;;20.42;;
32216;SDS011;67098;51.140;4.088;2023-04-19T03:19:43;36.67;;;23.15;;
32216;SDS011;67098;51.140;4.088;2023-04-19T03:22:09;31.23;;;20.98;;
32216;SDS011;67098;51.140;4.088;2023-04-19T03:24:34;32.85;;;21.90;;
32216;SDS011;67098;51.140;4.088;2023-04-19T03:27:01;33.00;;;20.88;;
32216;SDS011;67098;51.140;4.088;2023-04-19T03:29:27;30.48;;;21.30;;
32216;SDS011;67098;51.140;4.088;2023-04-19T03:31:53;30.58;;;20.25;;
32216;SDS011;67098;51.140;4.088;2023-04-19T03:34:18;35.13;;;20.92;;
32216;SDS011;67098;51.140;4.088;2023-04-19T03:36:44;33.20;;;20.80;;
32216;SDS011;67098;51.140;4.088;2023-04-19T03:39:09;34.20;;;21.40;;
32216;SDS011;67098;51.140;4.088;2023-04-19T03:41:35;33.00;;;21.30;;
32216;SDS011;67098;51.140;4.088;2023-04-19T03:44:01;35.17;;;21.63;;
32216;SDS011;67098;51.140;4.088;2023-04-19T03:46:27;32.72;;;20.55;;
32216;SDS011;67098;51.140;4.088;2023-04-19T03:48:56;34.80;;;20.52;;
32216;SDS011;67098;51.140;4.088;2023-04-19T03:51:21;35.25;;;21.67;;
32216;SDS011;67098;51.140;4.088;2023-04-19T03:53:47;30.73;;;20.65;;
32216;SDS011;67098;51.140;4.088;2023-04-19T03:56:12;33.78;;;21.50;;
32216;SDS011;67098;51.140;4.088;2023-04-19T03:58:38;32.13;;;20.85;;
32216;SDS011;67098;51.140;4.088;2023-04-19T04:01:04;35.08;;;22.13;;
32216;SDS011;67098;51.140;4.088;2023-04-19T04:03:32;36.85;;;21.73;;
32216;SDS011;67098;51.140;4.088;2023-04-19T04:05:58;35.38;;;22.02;;
32216;SDS011;67098;51.140;4.088;2023-04-19T04:08:24;37.20;;;22.05;;
32216;SDS011;67098;51.140;4.088;2023-04-19T04:10:50;35.15;;;22.45;;
32216;SDS011;67098;51.140;4.088;2023-04-19T04:13:15;38.00;;;22.00;;
32216;SDS011;67098;51.140;4.088;2023-04-19T04:15:41;36.65;;;22.60;;
32216;SDS011;67098;51.140;4.088;2023-04-19T04:18:06;33.22;;;20.83;;
32216;SDS011;67098;51.140;4.088;2023-04-19T04:20:32;40.53;;;21.92;;
32216;SDS011;67098;51.140;4.088;2023-04-19T04:22:58;32.13;;;21.40;;
32216;SDS011;67098;51.140;4.088;2023-04-19T04:25:23;36.50;;;22.88;;
32216;SDS011;67098;51.140;4.088;2023-04-19T04:27:52;35.95;;;21.60;;
32216;SDS011;67098;51.140;4.088;2023-04-19T04:30:18;34.45;;;21.95;;
32216;SDS011;67098;51.140;4.088;2023-04-19T04:32:44;37.85;;;23.00;;
32216;SDS011;67098;51.140;4.088;2023-04-19T04:35:11;38.10;;;22.73;;
32216;SDS011;67098;51.140;4.088;2023-04-19T04:37:37;35.50;;;21.42;;
32216;SDS011;67098;51.140;4.088;2023-04-19T04:40:03;32.92;;;21.13;;
32216;SDS011;67098;51.140;4.088;2023-04-19T04:42:29;37.17;;;21.92;;
32216;SDS011;67098;51.140;4.088;2023-04-19T04:44:56;36.97;;;22.77;;
32216;SDS011;67098;51.140;4.088;2023-04-19T04:47:23;37.88;;;22.88;;
32216;SDS011;67098;51.140;4.088;2023-04-19T04:49:48;34.33;;;21.70;;
32216;SDS011;67098;51.140;4.088;2023-04-19T04:52:14;38.42;;;22.00;;
32216;SDS011;67098;51.140;4.088;2023-04-19T04:54:41;32.53;;;20.70;;
32216;SDS011;67098;51.140;4.088;2023-04-19T04:57:07;36.60;;;24.75;;
32216;SDS011;67098;51.140;4.088;2023-04-19T04:59:32;35.95;;;21.95;;
32216;SDS011;67098;51.140;4.088;2023-04-19T05:01:58;34.28;;;22.38;;
32216;SDS011;67098;51.140;4.088;2023-04-19T05:04:24;34.15;;;22.05;;
32216;SDS011;67098;51.140;4.088;2023-04-19T05:06:50;38.38;;;21.85;;
32216;SDS011;67098;51.140;4.088;2023-04-19T05:09:16;33.13;;;21.70;;
32216;SDS011;67098;51.140;4.088;2023-04-19T05:11:41;32.53;;;20.38;;
32216;SDS011;67098;51.140;4.088;2023-04-19T05:14:07;32.33;;;20.13;;
32216;SDS011;67098;51.140;4.088;2023-04-19T05:16:33;31.73;;;20.50;;
32216;SDS011;67098;51.140;4.088;2023-04-19T05:18:58;32.70;;;20.58;;
32216;SDS011;67098;51.140;4.088;2023-04-19T05:21:24;36.20;;;21.73;;
32216;SDS011;67098;51.140;4.088;2023-04-19T05:23:51;34.10;;;21.75;;
32216;SDS011;67098;51.140;4.088;2023-04-19T05:26:18;35.33;;;22.17;;
32216;SDS011;67098;51.140;4.088;2023-04-19T05:28:44;37.20;;;21.33;;
32216;SDS011;67098;51.140;4.088;2023-04-19T05:31:10;35.40;;;21.35;;
32216;SDS011;67098;51.140;4.088;2023-04-19T05:33:36;35.45;;;21.67;;
32216;SDS011;67098;51.140;4.088;2023-04-19T05:36:02;36.38;;;22.27;;
32216;SDS011;67098;51.140;4.088;2023-04-19T05:38:29;40.05;;;22.05;;
32216;SDS011;67098;51.140;4.088;2023-04-19T05:40:54;35.95;;;22.08;;
32216;SDS011;67098;51.140;4.088;2023-04-19T05:43:20;36.40;;;21.58;;
32216;SDS011;67098;51.140;4.088;2023-04-19T05:45:46;34.38;;;21.15;;
32216;SDS011;67098;51.140;4.088;2023-04-19T05:48:11;32.10;;;20.15;;
32216;SDS011;67098;51.140;4.088;2023-04-19T05:50:37;34.42;;;21.50;;
32216;SDS011;67098;51.140;4.088;2023-04-19T05:53:03;34.20;;;21.02;;
32216;SDS011;67098;51.140;4.088;2023-04-19T05:55:29;35.03;;;21.13;;
32216;SDS011;67098;51.140;4.088;2023-04-19T05:57:55;32.88;;;19.73;;
32216;SDS011;67098;51.140;4.088;2023-04-19T06:00:22;31.08;;;19.48;;
32216;SDS011;67098;51.140;4.088;2023-04-19T06:02:48;33.95;;;20.58;;
32216;SDS011;67098;51.140;4.088;2023-04-19T06:05:13;30.63;;;19.20;;
32216;SDS011;67098;51.140;4.088;2023-04-19T06:07:39;35.58;;;18.95;;
32216;SDS011;67098;51.140;4.088;2023-04-19T06:10:05;34.03;;;19.10;;
32216;SDS011;67098;51.140;4.088;2023-04-19T06:12:31;34.20;;;19.15;;
32216;SDS011;67098;51.140;4.088;2023-04-19T06:14:57;32.47;;;19.17;;
32216;SDS011;67098;51.140;4.088;2023-04-19T06:17:23;33.65;;;19.23;;
32216;SDS011;67098;51.140;4.088;2023-04-19T06:19:52;32.42;;;19.50;;
32216;SDS011;67098;51.140;4.088;2023-04-19T06:22:18;30.52;;;18.48;;
32216;SDS011;67098;51.140;4.088;2023-04-19T06:24:45;32.80;;;18.15;;
32216;SDS011;67098;51.140;4.088;2023-04-19T06:27:11;31.08;;;18.38;;
32216;SDS011;67098;51.140;4.088;2023-04-19T06:29:38;31.13;;;18.42;;
32216;SDS011;67098;51.140;4.088;2023-04-19T06:32:04;35.78;;;19.60;;
32216;SDS011;67098;51.140;4.088;2023-04-19T06:34:29;33.40;;;18.23;;
32216;SDS011;67098;51.140;4.088;2023-04-19T06:36:55;32.13;;;18.20;;
32216;SDS011;67098;51.140;4.088;2023-04-19T06:39:21;28.13;;;17.10;;
32216;SDS011;67098;51.140;4.088;2023-04-19T06:41:46;28.20;;;17.48;;
32216;SDS011;67098;51.140;4.088;2023-04-19T06:44:12;28.20;;;17.45;;
32216;SDS011;67098;51.140;4.088;2023-04-19T06:46:38;33.30;;;18.63;;
32216;SDS011;67098;51.140;4.088;2023-04-19T06:49:03;29.75;;;17.02;;
32216;SDS011;67098;51.140;4.088;2023-04-19T06:51:29;26.75;;;17.02;;
32216;SDS011;67098;51.140;4.088;2023-04-19T06:53:55;24.50;;;16.67;;
32216;SDS011;67098;51.140;4.088;2023-04-19T06:59:18;30.77;;;16.95;;
32216;SDS011;67098;51.140;4.088;2023-04-19T07:01:45;28.10;;;16.15;;
32216;SDS011;67098;51.140;4.088;2023-04-19T07:04:11;22.90;;;15.52;;
32216;SDS011;67098;51.140;4.088;2023-04-19T07:06:37;25.42;;;14.93;;
32216;SDS011;67098;51.140;4.088;2023-04-19T07:09:04;23.48;;;15.70;;
32216;SDS011;67098;51.140;4.088;2023-04-19T07:11:30;26.73;;;14.77;;
32216;SDS011;67098;51.140;4.088;2023-04-19T07:13:56;23.45;;;15.10;;
32216;SDS011;67098;51.140;4.088;2023-04-19T07:16:23;25.17;;;14.80;;
32216;SDS011;67098;51.140;4.088;2023-04-19T07:18:49;25.00;;;15.23;;
32216;SDS011;67098;51.140;4.088;2023-04-19T07:21:14;23.45;;;14.43;;
32216;SDS011;67098;51.140;4.088;2023-04-19T07:23:40;22.67;;;14.88;;
32216;SDS011;67098;51.140;4.088;2023-04-19T07:26:06;20.63;;;13.85;;
32216;SDS011;67098;51.140;4.088;2023-04-19T07:28:32;22.05;;;13.82;;
32216;SDS011;67098;51.140;4.088;2023-04-19T07:30:57;23.25;;;14.25;;
32216;SDS011;67098;51.140;4.088;2023-04-19T07:33:24;20.42;;;13.60;;
32216;SDS011;67098;51.140;4.088;2023-04-19T07:35:50;22.20;;;14.18;;
32216;SDS011;67098;51.140;4.088;2023-04-19T07:38:16;27.63;;;14.38;;
32216;SDS011;67098;51.140;4.088;2023-04-19T07:40:43;22.20;;;12.70;;
32216;SDS011;67098;51.140;4.088;2023-04-19T07:43:09;24.65;;;13.70;;
32216;SDS011;67098;51.140;4.088;2023-04-19T07:45:35;19.83;;;13.38;;
32216;SDS011;67098;51.140;4.088;2023-04-19T07:48:00;19.77;;;11.68;;
32216;SDS011;67098;51.140;4.088;2023-04-19T07:50:26;19.08;;;12.55;;
32216;SDS011;67098;51.140;4.088;2023-04-19T07:52:52;18.05;;;13.38;;
32216;SDS011;67098;51.140;4.088;2023-04-19T07:55:18;20.63;;;12.98;;
32216;SDS011;67098;51.140;4.088;2023-04-19T07:57:44;19.25;;;12.27;;
32216;SDS011;67098;51.140;4.088;2023-04-19T08:00:15;19.30;;;12.13;;
32216;SDS011;67098;51.140;4.088;2023-04-19T08:02:45;18.02;;;12.13;;
32216;SDS011;67098;51.140;4.088;2023-04-19T08:05:12;16.92;;;11.45;;
32216;SDS011;67098;51.140;4.088;2023-04-19T08:07:41;16.92;;;11.15;;
32216;SDS011;67098;51.140;4.088;2023-04-19T08:10:08;16.95;;;11.15;;
32216;SDS011;67098;51.140;4.088;2023-04-19T08:12:34;17.70;;;11.10;;
32216;SDS011;67098;51.140;4.088;2023-04-19T08:15:00;17.02;;;11.25;;
32216;SDS011;67098;51.140;4.088;2023-04-19T08:17:27;17.63;;;10.10;;
32216;SDS011;67098;51.140;4.088;2023-04-19T08:19:52;16.52;;;10.55;;
32216;SDS011;67098;51.140;4.088;2023-04-19T08:22:18;15.13;;;9.45;;
32216;SDS011;67098;51.140;4.088;2023-04-19T08:24:45;18.30;;;9.63;;
32216;SDS011;67098;51.140;4.088;2023-04-19T08:27:13;14.50;;;9.57;;
32216;SDS011;67098;51.140;4.088;2023-04-19T08:29:38;13.98;;;9.25;;
32216;SDS011;67098;51.140;4.088;2023-04-19T08:32:04;11.60;;;8.45;;
32216;SDS011;67098;51.140;4.088;2023-04-19T08:34:33;15.48;;;8.77;;
32216;SDS011;67098;51.140;4.088;2023-04-19T08:37:02;19.38;;;8.48;;
32216;SDS011;67098;51.140;4.088;2023-04-19T08:39:28;10.30;;;7.88;;
32216;SDS011;67098;51.140;4.088;2023-04-19T08:41:55;11.73;;;7.80;;
32216;SDS011;67098;51.140;4.088;2023-04-19T08:44:21;16.58;;;8.95;;
32216;SDS011;67098;51.140;4.088;2023-04-19T08:46:48;14.10;;;8.93;;
32216;SDS011;67098;51.140;4.088;2023-04-19T08:49:15;12.73;;;8.80;;
32216;SDS011;67098;51.140;4.088;2023-04-19T08:51:44;11.98;;;8.23;;
32216;SDS011;67098;51.140;4.088;2023-04-19T08:54:12;11.18;;;8.23;;
32216;SDS011;67098;51.140;4.088;2023-04-19T08:56:40;12.93;;;8.98;;
32216;SDS011;67098;51.140;4.088;2023-04-19T08:59:05;11.68;;;7.82;;
32216;SDS011;67098;51.140;4.088;2023-04-19T09:01:31;11.82;;;7.32;;
32216;SDS011;67098;51.140;4.088;2023-04-19T09:03:57;13.85;;;8.13;;
32216;SDS011;67098;51.140;4.088;2023-04-19T09:06:22;11.05;;;8.05;;
32216;SDS011;67098;51.140;4.088;2023-04-19T09:08:48;12.98;;;7.03;;
32216;SDS011;67098;51.140;4.088;2023-04-19T09:11:16;10.65;;;7.72;;
32216;SDS011;67098;51.140;4.088;2023-04-19T09:13:44;11.80;;;8.55;;
32216;SDS011;67098;51.140;4.088;2023-04-19T09:16:25;12.48;;;7.65;;
32216;SDS011;67098;51.140;4.088;2023-04-19T09:21:30;10.05;;;7.32;;
32216;SDS011;67098;51.140;4.088;2023-04-19T09:23:56;11.30;;;7.70;;
32216;SDS011;67098;51.140;4.088;2023-04-19T09:26:23;12.02;;;7.93;;
32216;SDS011;67098;51.140;4.088;2023-04-19T09:28:57;21.43;;;7.73;;
32216;SDS011;67098;51.140;4.088;2023-04-19T09:31:27;14.23;;;7.88;;
32216;SDS011;67098;51.140;4.088;2023-04-19T09:33:54;10.65;;;7.55;;
32216;SDS011;67098;51.140;4.088;2023-04-19T09:36:29;11.18;;;7.45;;
32216;SDS011;67098;51.140;4.088;2023-04-19T09:38:57;12.50;;;7.45;;
32216;SDS011;67098;51.140;4.088;2023-04-19T09:41:27;13.18;;;7.97;;
32216;SDS011;67098;51.140;4.088;2023-04-19T09:43:52;12.43;;;7.43;;
32216;SDS011;67098;51.140;4.088;2023-04-19T09:51:54;10.18;;;7.18;;
32216;SDS011;67098;51.140;4.088;2023-04-19T09:54:21;10.40;;;7.25;;
32216;SDS011;67098;51.140;4.088;2023-04-19T09:56:49;12.35;;;6.65;;
32216;SDS011;67098;51.140;4.088;2023-04-19T09:59:16;10.65;;;7.38;;
32216;SDS011;67098;51.140;4.088;2023-04-19T10:01:46;10.95;;;6.93;;
32216;SDS011;67098;51.140;4.088;2023-04-19T10:04:16;12.57;;;8.25;;
32216;SDS011;67098;51.140;4.088;2023-04-19T10:06:51;12.38;;;7.80;;
32216;SDS011;67098;51.140;4.088;2023-04-19T10:09:21;10.98;;;7.70;;
32216;SDS011;67098;51.140;4.088;2023-04-19T10:11:50;10.85;;;7.32;;
32216;SDS011;67098;51.140;4.088;2023-04-19T10:14:18;9.07;;;7.00;;
32216;SDS011;67098;51.140;4.088;2023-04-19T10:16:48;16.20;;;8.05;;
32216;SDS011;67098;51.140;4.088;2023-04-19T10:19:15;11.32;;;7.50;;
32216;SDS011;67098;51.140;4.088;2023-04-19T10:21:43;10.70;;;7.78;;
32216;SDS011;67098;51.140;4.088;2023-04-19T10:24:14;9.10;;;7.53;;
32216;SDS011;67098;51.140;4.088;2023-04-19T10:32:28;10.73;;;7.32;;
32216;SDS011;67098;51.140;4.088;2023-04-19T10:35:07;10.63;;;7.38;;
32216;SDS011;67098;51.140;4.088;2023-04-19T10:38:00;10.32;;;7.53;;
32216;SDS011;67098;51.140;4.088;2023-04-19T10:40:53;12.43;;;7.32;;
32216;SDS011;67098;51.140;4.088;2023-04-19T10:43:25;13.40;;;7.68;;
32216;SDS011;67098;51.140;4.088;2023-04-19T10:45:50;13.85;;;7.85;;
32216;SDS011;67098;51.140;4.088;2023-04-19T10:51:16;15.70;;;7.00;;
32216;SDS011;67098;51.140;4.088;2023-04-19T10:53:45;11.45;;;7.28;;
32216;SDS011;67098;51.140;4.088;2023-04-19T10:56:12;14.27;;;8.07;;
32216;SDS011;67098;51.140;4.088;2023-04-19T11:04:12;15.77;;;8.23;;
32216;SDS011;67098;51.140;4.088;2023-04-19T11:09:30;13.00;;;8.23;;
32216;SDS011;67098;51.140;4.088;2023-04-19T11:12:00;10.30;;;7.47;;
32216;SDS011;67098;51.140;4.088;2023-04-19T11:14:30;12.55;;;7.93;;
32216;SDS011;67098;51.140;4.088;2023-04-19T11:16:59;13.82;;;8.30;;
32216;SDS011;67098;51.140;4.088;2023-04-19T11:19:26;12.65;;;8.30;;
32216;SDS011;67098;51.140;4.088;2023-04-19T11:21:52;14.40;;;7.95;;
32216;SDS011;67098;51.140;4.088;2023-04-19T11:24:23;12.13;;;8.98;;
32216;SDS011;67098;51.140;4.088;2023-04-19T11:26:48;10.63;;;7.95;;
32216;SDS011;67098;51.140;4.088;2023-04-19T11:29:14;11.75;;;8.68;;
32216;SDS011;67098;51.140;4.088;2023-04-19T11:31:42;12.30;;;9.05;;
32216;SDS011;67098;51.140;4.088;2023-04-19T11:34:10;13.07;;;9.07;;
32216;SDS011;67098;51.140;4.088;2023-04-19T11:36:45;16.27;;;8.20;;
32216;SDS011;67098;51.140;4.088;2023-04-19T11:39:15;11.50;;;8.98;;
32216;SDS011;67098;51.140;4.088;2023-04-19T11:41:40;18.40;;;8.45;;
32216;SDS011;67098;51.140;4.088;2023-04-19T11:44:16;13.23;;;8.10;;
32216;SDS011;67098;51.140;4.088;2023-04-19T11:46:56;11.68;;;7.22;;
32216;SDS011;67098;51.140;4.088;2023-04-19T11:49:29;10.73;;;6.90;;
32216;SDS011;67098;51.140;4.088;2023-04-19T11:51:57;11.82;;;7.55;;
32216;SDS011;67098;51.140;4.088;2023-04-19T11:54:24;9.30;;;5.85;;
32216;SDS011;67098;51.140;4.088;2023-04-19T11:57:00;9.48;;;6.80;;
32216;SDS011;67098;51.140;4.088;2023-04-19T11:59:32;11.05;;;6.50;;
32216;SDS011;67098;51.140;4.088;2023-04-19T12:02:06;13.25;;;6.57;;
32216;SDS011;67098;51.140;4.088;2023-04-19T12:04:33;7.18;;;5.95;;
32216;SDS011;67098;51.140;4.088;2023-04-19T12:07:00;9.30;;;5.30;;
32216;SDS011;67098;51.140;4.088;2023-04-19T12:09:27;8.73;;;5.93;;
32216;SDS011;67098;51.140;4.088;2023-04-19T12:11:52;11.02;;;5.63;;
32216;SDS011;67098;51.140;4.088;2023-04-19T12:14:19;10.52;;;5.00;;
32216;SDS011;67098;51.140;4.088;2023-04-19T12:19:50;13.38;;;6.13;;
32216;SDS011;67098;51.140;4.088;2023-04-19T12:22:17;7.30;;;5.30;;
32216;SDS011;67098;51.140;4.088;2023-04-19T12:24:51;8.57;;;5.03;;
32216;SDS011;67098;51.140;4.088;2023-04-19T12:27:20;11.05;;;5.97;;
32216;SDS011;67098;51.140;4.088;2023-04-19T12:29:45;10.10;;;5.10;;
32216;SDS011;67098;51.140;4.088;2023-04-19T12:32:11;7.40;;;4.70;;
32216;SDS011;67098;51.140;4.088;2023-04-19T12:34:37;8.60;;;4.57;;
32216;SDS011;67098;51.140;4.088;2023-04-19T12:37:03;10.23;;;4.75;;
32216;SDS011;67098;51.140;4.088;2023-04-19T12:39:28;9.75;;;4.88;;
32216;SDS011;67098;51.140;4.088;2023-04-19T12:41:55;8.98;;;4.50;;
32216;SDS011;67098;51.140;4.088;2023-04-19T12:44:21;9.40;;;3.83;;
32216;SDS011;67098;51.140;4.088;2023-04-19T12:46:47;16.45;;;5.00;;
32216;SDS011;67098;51.140;4.088;2023-04-19T12:49:13;4.72;;;4.05;;
32216;SDS011;67098;51.140;4.088;2023-04-19T12:51:41;13.07;;;4.47;;
32216;SDS011;67098;51.140;4.088;2023-04-19T12:54:07;12.38;;;4.78;;
32216;SDS011;67098;51.140;4.088;2023-04-19T12:56:33;10.98;;;4.40;;
32216;SDS011;67098;51.140;4.088;2023-04-19T12:58:59;18.58;;;4.45;;
32216;SDS011;67098;51.140;4.088;2023-04-19T13:01:24;4.43;;;3.63;;
32216;SDS011;67098;51.140;4.088;2023-04-19T13:03:50;9.32;;;3.70;;
32216;SDS011;67098;51.140;4.088;2023-04-19T13:06:15;9.68;;;3.83;;
32216;SDS011;67098;51.140;4.088;2023-04-19T13:08:41;7.50;;;3.80;;
32216;SDS011;67098;51.140;4.088;2023-04-19T13:11:07;9.15;;;3.97;;
32216;SDS011;67098;51.140;4.088;2023-04-19T13:13:33;9.00;;;4.10;;
32216;SDS011;67098;51.140;4.088;2023-04-19T13:15:59;5.80;;;4.00;;
32216;SDS011;67098;51.140;4.088;2023-04-19T13:18:24;8.20;;;4.00;;
32216;SDS011;67098;51.140;4.088;2023-04-19T13:20:50;5.82;;;4.03;;
32216;SDS011;67098;51.140;4.088;2023-04-19T13:23:18;7.68;;;4.20;;
32216;SDS011;67098;51.140;4.088;2023-04-19T13:25:44;5.20;;;3.83;;
32216;SDS011;67098;51.140;4.088;2023-04-19T13:28:10;12.52;;;3.58;;
32216;SDS011;67098;51.140;4.088;2023-04-19T13:30:35;5.57;;;3.20;;
32216;SDS011;67098;51.140;4.088;2023-04-19T13:33:01;9.93;;;3.22;;
32216;SDS011;67098;51.140;4.088;2023-04-19T13:35:27;7.40;;;2.90;;
32216;SDS011;67098;51.140;4.088;2023-04-19T13:37:52;6.13;;;3.22;;
32216;SDS011;67098;51.140;4.088;2023-04-19T13:40:18;4.38;;;3.08;;
32216;SDS011;67098;51.140;4.088;2023-04-19T13:42:43;11.30;;;2.90;;
32216;SDS011;67098;51.140;4.088;2023-04-19T13:45:09;8.02;;;3.25;;
32216;SDS011;67098;51.140;4.088;2023-04-19T13:47:35;3.72;;;2.70;;
32216;SDS011;67098;51.140;4.088;2023-04-19T13:50:01;4.97;;;2.63;;
32216;SDS011;67098;51.140;4.088;2023-04-19T13:52:26;6.90;;;2.53;;
32216;SDS011;67098;51.140;4.088;2023-04-19T13:54:52;5.43;;;3.05;;
32216;SDS011;67098;51.140;4.088;2023-04-19T13:57:18;7.18;;;2.85;;
32216;SDS011;67098;51.140;4.088;2023-04-19T13:59:43;7.13;;;3.20;;
32216;SDS011;67098;51.140;4.088;2023-04-19T14:02:09;6.30;;;2.65;;
32216;SDS011;67098;51.140;4.088;2023-04-19T14:04:35;7.00;;;2.78;;
32216;SDS011;67098;51.140;4.088;2023-04-19T14:07:00;14.98;;;2.80;;
32216;SDS011;67098;51.140;4.088;2023-04-19T14:09:26;4.85;;;2.35;;
32216;SDS011;67098;51.140;4.088;2023-04-19T14:11:52;5.90;;;2.25;;
32216;SDS011;67098;51.140;4.088;2023-04-19T14:14:18;2.78;;;2.38;;
32216;SDS011;67098;51.140;4.088;2023-04-19T14:16:43;5.97;;;2.45;;
32216;SDS011;67098;51.140;4.088;2023-04-19T14:19:09;6.30;;;2.60;;
32216;SDS011;67098;51.140;4.088;2023-04-19T14:21:35;7.47;;;2.55;;
32216;SDS011;67098;51.140;4.088;2023-04-19T14:24:00;8.80;;;3.00;;
32216;SDS011;67098;51.140;4.088;2023-04-19T14:26:26;4.65;;;2.72;;
32216;SDS011;67098;51.140;4.088;2023-04-19T14:28:52;6.97;;;2.80;;
32216;SDS011;67098;51.140;4.088;2023-04-19T14:31:17;5.20;;;2.97;;
32216;SDS011;67098;51.140;4.088;2023-04-19T14:33:43;4.97;;;3.15;;
32216;SDS011;67098;51.140;4.088;2023-04-19T14:36:09;7.35;;;2.80;;
32216;SDS011;67098;51.140;4.088;2023-04-19T14:38:34;4.65;;;2.63;;
32216;SDS011;67098;51.140;4.088;2023-04-19T14:41:00;5.32;;;2.90;;
32216;SDS011;67098;51.140;4.088;2023-04-19T14:43:27;5.20;;;3.20;;
32216;SDS011;67098;51.140;4.088;2023-04-19T14:45:53;6.60;;;2.95;;
32216;SDS011;67098;51.140;4.088;2023-04-19T14:48:19;5.82;;;3.53;;
32216;SDS011;67098;51.140;4.088;2023-04-19T14:50:45;3.58;;;2.78;;
32216;SDS011;67098;51.140;4.088;2023-04-19T14:53:11;4.35;;;2.78;;
32216;SDS011;67098;51.140;4.088;2023-04-19T14:55:37;9.32;;;3.15;;